Time;durP1;ratioP1;P1;durP2;ratioP2;P2;SDS_P1;SDS_P2;PMS_P1;PMS_P2;Temp;Humidity;BMP_temperature;BMP_pressure;BME280_temperature;BME280_humidity;BME280_pressure;Samples;Min_cycle;Max_cycle;Signal;HPM_P1;HPM_P2
2022/12/27 00:01:42;;;;;;;10.35;2.13;;;3.20;99.90;;;;;;5015943;28;20069;-82
2022/12/27 00:04:08;;;;;;;8.60;1.73;;;3.20;99.90;;;;;;5016052;28;20091;-82
2022/12/27 00:06:33;;;;;;;16.38;1.95;;;3.20;99.90;;;;;;5015708;28;20688;-82
2022/12/27 00:09:00;;;;;;;11.75;3.03;;;3.20;99.90;;;;;;4998753;28;20029;-82
2022/12/27 00:11:30;;;;;;;12.68;2.28;;;3.20;99.90;;;;;;5014957;28;20164;-82
2022/12/27 00:14:02;;;;;;;6.95;1.80;;;3.20;99.90;;;;;;5022282;28;20041;-82
2022/12/27 00:16:27;;;;;;;8.80;2.08;;;3.20;99.90;;;;;;5003270;28;20065;-82
2022/12/27 00:18:54;;;;;;;10.43;2.13;;;3.20;99.90;;;;;;5019430;28;20126;-82
2022/12/27 00:21:20;;;;;;;10.20;1.92;;;3.30;99.90;;;;;;5018523;28;20048;-82
2022/12/27 00:23:48;;;;;;;11.00;2.50;;;3.30;99.90;;;;;;5016216;28;20045;-82
2022/12/27 00:26:29;;;;;;;8.70;1.92;;;3.30;99.90;;;;;;5017448;28;20212;-82
2022/12/27 00:28:54;;;;;;;8.90;2.10;;;3.40;99.90;;;;;;5017432;28;20038;-82
2022/12/27 00:31:21;;;;;;;7.20;2.03;;;3.40;99.90;;;;;;5016109;28;20061;-82
2022/12/27 00:33:49;;;;;;;9.77;1.80;;;3.40;99.90;;;;;;5015284;28;20073;-82
2022/12/27 00:36:18;;;;;;;8.88;2.05;;;3.50;99.90;;;;;;5010916;28;20056;-81
2022/12/27 00:38:44;;;;;;;12.50;2.22;;;3.50;99.90;;;;;;5012714;28;20041;-81
2022/12/27 00:41:12;;;;;;;14.57;2.00;;;3.60;99.90;;;;;;5009865;28;20467;-81
2022/12/27 00:43:38;;;;;;;11.43;2.17;;;3.60;99.90;;;;;;5015944;28;20041;-81
2022/12/27 00:46:04;;;;;;;10.13;1.70;;;3.60;99.90;;;;;;5014612;28;20034;-82
2022/12/27 00:48:30;;;;;;;8.30;1.73;;;3.60;99.90;;;;;;5019014;28;20030;-82
2022/12/27 00:51:05;;;;;;;8.98;1.73;;;3.70;99.90;;;;;;4998010;28;20739;-82
2022/12/27 00:53:32;;;;;;;12.93;2.00;;;3.70;99.90;;;;;;5015755;28;20085;-82
2022/12/27 00:55:58;;;;;;;14.35;1.90;;;3.70;99.90;;;;;;5017995;28;20492;-81
2022/12/27 00:58:23;;;;;;;7.68;1.60;;;3.80;99.90;;;;;;5017623;28;20042;-82
2022/12/27 01:00:50;;;;;;;13.88;2.10;;;3.80;99.90;;;;;;5017901;28;20078;-82
2022/12/27 01:03:17;;;;;;;13.32;1.90;;;3.90;99.90;;;;;;5019072;28;20110;-81
2022/12/27 01:05:42;;;;;;;8.80;2.30;;;3.90;99.90;;;;;;5000216;28;20065;-82
2022/12/27 01:08:08;;;;;;;10.60;1.92;;;3.80;99.90;;;;;;5016757;28;20037;-82
2022/12/27 01:10:34;;;;;;;14.43;1.63;;;3.80;99.90;;;;;;5015060;28;20046;-81
2022/12/27 01:13:02;;;;;;;7.70;1.90;;;3.80;99.90;;;;;;5013903;28;20026;-82
2022/12/27 01:15:28;;;;;;;8.52;1.85;;;3.80;99.90;;;;;;5022311;28;20042;-82
2022/12/27 01:17:53;;;;;;;10.90;1.88;;;3.80;99.90;;;;;;5014752;28;20034;-82
2022/12/27 01:20:20;;;;;;;11.32;1.98;;;3.80;99.90;;;;;;5021752;28;20053;-82
2022/12/27 01:22:46;;;;;;;13.65;1.80;;;3.80;99.90;;;;;;5012079;28;20072;-81
2022/12/27 01:25:11;;;;;;;7.55;1.52;;;3.80;99.90;;;;;;5015586;28;20034;-82
2022/12/27 01:27:37;;;;;;;13.73;1.90;;;3.90;99.90;;;;;;5008403;28;20042;-81
2022/12/27 01:30:04;;;;;;;9.57;2.28;;;3.90;99.90;;;;;;5010296;28;20037;-82
2022/12/27 01:32:32;;;;;;;14.20;1.98;;;4.00;99.90;;;;;;5016947;28;20131;-81
2022/12/27 01:34:58;;;;;;;6.22;1.80;;;4.10;99.90;;;;;;5015104;28;20431;-82
2022/12/27 01:37:25;;;;;;;10.32;2.25;;;4.10;99.90;;;;;;5021529;28;20092;-82
2022/12/27 01:39:51;;;;;;;6.70;1.80;;;4.10;99.90;;;;;;5015108;28;20564;-81
2022/12/27 01:45:22;;;;;;;10.90;1.95;;;4.20;99.90;;;;;;5014198;28;20049;-82
2022/12/27 01:48:13;;;;;;;7.72;1.95;;;4.30;99.90;;;;;;5020809;28;20037;-82
2022/12/27 01:50:52;;;;;;;15.10;1.83;;;4.30;99.90;;;;;;5012739;28;20138;-82
2022/12/27 01:53:29;;;;;;;10.38;1.85;;;4.40;99.90;;;;;;5028313;28;20124;-82
2022/12/27 01:55:54;;;;;;;9.88;2.10;;;4.40;99.90;;;;;;5013179;28;20073;-82
2022/12/27 01:58:43;;;;;;;6.68;1.75;;;4.50;99.90;;;;;;5021546;28;20080;-82
2022/12/27 02:01:15;;;;;;;12.60;1.85;;;4.50;99.90;;;;;;5016027;28;20069;-82
2022/12/27 02:04:03;;;;;;;6.32;2.20;;;4.50;99.90;;;;;;5026269;28;20061;-82
2022/12/27 02:06:31;;;;;;;11.85;1.88;;;4.50;99.90;;;;;;5002680;28;20081;-82
2022/12/27 02:09:21;;;;;;;5.72;1.80;;;4.60;99.90;;;;;;5019848;28;20045;-82
2022/12/27 02:11:50;;;;;;;9.77;1.75;;;4.40;99.90;;;;;;5023458;28;20041;-82
2022/12/27 02:14:36;;;;;;;11.15;1.73;;;4.40;99.90;;;;;;5025938;28;20144;-82
2022/12/27 02:17:09;;;;;;;12.05;2.47;;;4.40;99.90;;;;;;5016468;28;20052;-82
2022/12/27 02:19:40;;;;;;;11.68;2.80;;;4.50;99.90;;;;;;5019440;28;20041;-82
2022/12/27 02:26:16;;;;;;;11.32;2.83;;;4.50;99.90;;;;;;4949660;28;20490;-82
2022/12/27 02:28:53;;;;;;;8.85;1.40;;;4.50;99.90;;;;;;4959166;28;20051;-82
2022/12/27 02:31:30;;;;;;;9.23;1.85;;;4.50;99.90;;;;;;4943710;28;20066;-82
2022/12/27 02:33:58;;;;;;;14.00;2.22;;;4.40;99.90;;;;;;4937484;28;20045;-82
2022/12/27 02:36:29;;;;;;;10.35;1.73;;;4.40;99.90;;;;;;4950216;28;20058;-82
2022/12/27 02:38:58;;;;;;;6.70;1.60;;;4.30;99.90;;;;;;4947965;28;20050;-82
2022/12/27 02:53:04;;;;;;;12.00;2.00;;;4.20;99.90;;;;;;4953688;28;20047;-82
2022/12/27 02:55:41;;;;;;;9.30;1.37;;;4.20;99.90;;;;;;4964013;28;20046;-82
2022/12/27 02:58:45;;;;;;;9.63;1.73;;;4.20;99.90;;;;;;4949596;28;20502;-81
2022/12/27 03:04:43;;;;;;;11.10;1.95;;;4.30;99.90;;;;;;5012538;28;20045;-82
2022/12/27 03:07:24;;;;;;;9.77;1.80;;;4.40;99.90;;;;;;5029799;28;20038;-82
2022/12/27 03:16:03;;;;;;;10.40;1.42;;;4.40;99.90;;;;;;5014212;28;20053;-82
2022/12/27 03:18:47;;;;;;;9.10;1.52;;;4.30;99.90;;;;;;5012561;28;20447;-82
2022/12/27 03:26:57;;;;;;;9.13;1.60;;;4.10;99.90;;;;;;5014750;28;20085;-82
2022/12/27 03:35:02;;;;;;;16.10;1.70;;;4.00;99.90;;;;;;5011794;28;20058;-82
2022/12/27 03:40:33;;;;;;;10.43;1.85;;;4.00;99.90;;;;;;5015207;28;20538;-82
2022/12/27 03:43:12;;;;;;;6.25;2.05;;;4.00;99.90;;;;;;5014687;28;20037;-82
2022/12/27 03:48:32;;;;;;;8.57;1.55;;;4.00;99.90;;;;;;5011373;28;20045;-82
2022/12/27 03:51:04;;;;;;;10.38;1.30;;;4.00;99.90;;;;;;5018609;28;20034;-82
2022/12/27 03:53:53;;;;;;;9.55;1.77;;;4.10;99.90;;;;;;5011946;28;20046;-82
2022/12/27 03:56:19;;;;;;;8.25;1.35;;;4.10;99.90;;;;;;5021163;28;20123;-82
2022/12/27 03:58:45;;;;;;;11.13;2.15;;;4.10;99.90;;;;;;5012665;28;20053;-82
2022/12/27 04:01:11;;;;;;;9.82;2.10;;;4.20;99.90;;;;;;5014487;28;20037;-82
2022/12/27 04:03:36;;;;;;;16.92;1.88;;;4.30;99.90;;;;;;5010294;28;20048;-82
2022/12/27 04:06:02;;;;;;;9.48;2.03;;;4.30;99.90;;;;;;5022375;28;20044;-80
2022/12/27 04:35:49;;;;;;;8.07;1.30;;;4.00;99.90;;;;;;5017684;28;20046;-82
2022/12/27 04:38:15;;;;;;;13.15;1.95;;;4.00;99.90;;;;;;5010228;28;20038;-82
2022/12/27 04:55:23;;;;;;;10.02;1.42;;;3.80;99.90;;;;;;5011965;28;20057;-82
2022/12/27 04:57:50;;;;;;;9.48;1.30;;;3.80;99.90;;;;;;5009650;28;20041;-82
2022/12/27 05:03:04;;;;;;;6.47;1.73;;;3.70;99.90;;;;;;5019779;28;20045;-82
2022/12/27 05:05:30;;;;;;;11.02;2.03;;;3.80;99.90;;;;;;5018439;28;20072;-82
2022/12/27 05:16:10;;;;;;;13.18;1.50;;;3.80;99.90;;;;;;5016893;28;20046;-81
2022/12/27 05:18:35;;;;;;;12.90;2.25;;;3.80;99.90;;;;;;5010805;28;20073;-82
2022/12/27 05:21:03;;;;;;;12.13;1.95;;;3.90;99.90;;;;;;5015162;28;20041;-82
2022/12/27 05:26:25;;;;;;;6.75;1.40;;;4.00;99.90;;;;;;5021507;28;20041;-82
2022/12/27 05:28:53;;;;;;;7.63;1.75;;;4.10;99.90;;;;;;5014739;28;20044;-82
2022/12/27 05:31:21;;;;;;;9.57;1.40;;;4.10;99.90;;;;;;5017420;28;20037;-81
2022/12/27 05:33:48;;;;;;;6.60;1.20;;;4.10;99.90;;;;;;5012800;28;20057;-82
2022/12/27 05:36:14;;;;;;;9.23;1.75;;;4.00;99.90;;;;;;5017326;28;20120;-82
2022/12/27 05:38:40;;;;;;;11.23;1.38;;;4.00;99.90;;;;;;5020417;28;20132;-82
2022/12/27 05:41:06;;;;;;;7.05;1.02;;;3.90;99.90;;;;;;5015802;28;20045;-82
2022/12/27 05:43:32;;;;;;;6.10;1.33;;;3.90;99.90;;;;;;5009356;28;20054;-81
2022/12/27 05:46:04;;;;;;;5.43;0.93;;;3.80;99.90;;;;;;5015220;28;20093;-81
2022/12/27 05:48:30;;;;;;;7.13;1.50;;;3.80;99.90;;;;;;4997081;28;20050;-82
2022/12/27 05:50:56;;;;;;;10.43;1.20;;;3.70;99.90;;;;;;5012806;28;20100;-81
2022/12/27 05:53:22;;;;;;;7.80;1.60;;;3.70;99.90;;;;;;5019833;28;20117;-82
2022/12/27 05:55:57;;;;;;;11.60;1.88;;;3.60;99.90;;;;;;5017724;28;20108;-81
2022/12/27 05:58:24;;;;;;;12.27;2.53;;;3.60;99.90;;;;;;5021614;28;20045;-82
2022/12/27 06:00:49;;;;;;;14.10;2.05;;;3.50;99.90;;;;;;5010555;28;20053;-81
2022/12/27 06:03:15;;;;;;;10.35;1.80;;;3.50;99.90;;;;;;5018011;28;20042;-81
2022/12/27 06:05:41;;;;;;;9.10;1.50;;;3.50;99.90;;;;;;5019146;28;20049;-82
2022/12/27 06:08:08;;;;;;;13.15;1.65;;;3.40;99.90;;;;;;5010090;28;20038;-82
2022/12/27 06:10:33;;;;;;;11.82;1.90;;;3.40;99.90;;;;;;5010006;28;20026;-82
2022/12/27 06:13:00;;;;;;;7.82;1.58;;;3.40;99.90;;;;;;5012967;28;20030;-82
2022/12/27 06:15:26;;;;;;;10.98;1.80;;;3.40;99.90;;;;;;5013219;28;20089;-82
2022/12/27 06:17:52;;;;;;;9.32;1.40;;;3.40;99.90;;;;;;5016286;28;20050;-82
2022/12/27 06:20:17;;;;;;;6.15;1.17;;;3.30;99.90;;;;;;5015145;28;20045;-82
2022/12/27 06:22:43;;;;;;;10.85;2.05;;;3.30;99.90;;;;;;5018408;28;20053;-81
2022/12/27 06:25:10;;;;;;;10.63;1.70;;;3.60;99.90;;;;;;5014780;28;20084;-81
2022/12/27 06:27:35;;;;;;;9.52;1.33;;;3.90;99.90;;;;;;5023254;28;20032;-82
2022/12/27 06:30:01;;;;;;;13.85;1.83;;;3.30;99.90;;;;;;5014190;28;20045;-81
2022/12/27 06:32:27;;;;;;;9.13;1.48;;;3.20;99.90;;;;;;5019334;28;20395;-82
2022/12/27 06:34:52;;;;;;;8.57;1.90;;;3.20;99.90;;;;;;5023959;28;20127;-81
2022/12/27 06:37:18;;;;;;;19.50;3.85;;;3.20;99.90;;;;;;5017483;28;20894;-81
2022/12/27 06:39:44;;;;;;;20.70;2.95;;;3.10;99.90;;;;;;5017872;28;20041;-81
2022/12/27 06:42:09;;;;;;;14.23;2.33;;;3.10;99.90;;;;;;5012265;28;20972;-81
2022/12/27 06:44:35;;;;;;;12.70;2.15;;;3.10;99.90;;;;;;5025848;28;20370;-81
2022/12/27 06:47:01;;;;;;;10.65;1.90;;;3.00;99.90;;;;;;5021026;28;20049;-81
2022/12/27 06:49:28;;;;;;;12.80;1.98;;;3.00;99.90;;;;;;5019198;28;20033;-81
2022/12/27 06:51:53;;;;;;;11.15;2.30;;;3.00;99.90;;;;;;5023864;28;20041;-82
2022/12/27 06:54:19;;;;;;;10.52;1.90;;;3.00;99.90;;;;;;5013253;28;20087;-81
2022/12/27 06:56:45;;;;;;;8.43;1.60;;;3.00;99.90;;;;;;5017900;28;20076;-82
2022/12/27 06:59:10;;;;;;;10.85;1.63;;;2.90;99.90;;;;;;5014712;28;20412;-82
2022/12/27 07:01:36;;;;;;;7.93;1.52;;;2.90;99.90;;;;;;5019186;28;20069;-81
2022/12/27 07:04:02;;;;;;;8.80;1.63;;;2.90;99.90;;;;;;5020678;28;20096;-84
2022/12/27 07:06:30;;;;;;;11.15;1.90;;;2.90;99.90;;;;;;5023783;28;20037;-82
2022/12/27 07:08:58;;;;;;;7.22;1.40;;;2.90;99.90;;;;;;5016430;28;20058;-81
2022/12/27 07:11:24;;;;;;;11.57;1.40;;;2.90;99.90;;;;;;5018691;28;20480;-82
2022/12/27 07:13:52;;;;;;;6.25;1.45;;;2.90;99.90;;;;;;5019937;28;20112;-83
2022/12/27 07:16:21;;;;;;;11.98;1.55;;;2.90;99.90;;;;;;5016324;28;20073;-82
2022/12/27 07:18:46;;;;;;;11.05;1.38;;;2.90;99.90;;;;;;5016020;28;20485;-82
2022/12/27 07:21:15;;;;;;;6.07;1.40;;;2.80;99.90;;;;;;5014721;28;20045;-82
2022/12/27 07:23:41;;;;;;;4.82;1.20;;;2.80;99.90;;;;;;5039451;28;20041;-83
2022/12/27 07:26:16;;;;;;;9.60;1.70;;;2.80;99.90;;;;;;5016630;28;20041;-83
2022/12/27 07:28:42;;;;;;;11.57;2.08;;;2.80;99.90;;;;;;5012561;28;20096;-83
2022/12/27 07:31:14;;;;;;;7.10;1.40;;;2.80;99.90;;;;;;5016492;28;20428;-82
2022/12/27 07:33:39;;;;;;;8.82;1.60;;;2.80;99.90;;;;;;5015683;28;20330;-83
2022/12/27 07:36:08;;;;;;;7.57;1.60;;;2.80;99.90;;;;;;5018189;28;20048;-82
2022/12/27 07:38:34;;;;;;;6.20;1.40;;;2.80;99.90;;;;;;5023557;28;20500;-82
2022/12/27 07:41:01;;;;;;;9.52;1.85;;;2.80;99.90;;;;;;5019954;28;20062;-83
2022/12/27 07:43:32;;;;;;;14.40;2.03;;;2.90;99.90;;;;;;5017694;28;20058;-83
2022/12/27 07:46:07;;;;;;;12.23;1.65;;;3.00;99.90;;;;;;5007206;28;20041;-83
2022/12/27 07:48:33;;;;;;;11.02;2.28;;;3.00;99.90;;;;;;5026276;28;20038;-84
2022/12/27 07:50:59;;;;;;;17.25;2.40;;;3.40;99.90;;;;;;5005262;28;20048;-84
2022/12/27 07:53:25;;;;;;;11.65;1.73;;;3.10;99.90;;;;;;5028925;28;20396;-84
2022/12/27 07:55:52;;;;;;;11.88;2.50;;;3.70;99.90;;;;;;5038109;28;20172;-84
2022/12/27 07:58:18;;;;;;;15.35;2.13;;;3.20;99.90;;;;;;5028448;28;20038;-84
2022/12/27 08:00:47;;;;;;;11.38;2.25;;;3.30;99.90;;;;;;5022406;28;20481;-84
2022/12/27 08:03:12;;;;;;;16.70;2.88;;;3.30;99.90;;;;;;5013059;28;20081;-84
2022/12/27 08:05:45;;;;;;;12.60;2.03;;;3.30;99.90;;;;;;5018005;28;20068;-84
2022/12/27 08:08:11;;;;;;;14.77;2.38;;;3.40;99.90;;;;;;5026683;28;20068;-84
2022/12/27 08:10:37;;;;;;;18.60;2.05;;;3.40;99.90;;;;;;5024740;28;20030;-84
2022/12/27 08:13:03;;;;;;;12.13;2.63;;;3.40;99.90;;;;;;5012969;28;20295;-84
2022/12/27 08:15:28;;;;;;;20.88;2.63;;;3.50;99.90;;;;;;5017588;28;20049;-84
2022/12/27 08:17:54;;;;;;;9.82;2.25;;;3.50;99.90;;;;;;5020666;28;20029;-84
2022/12/27 08:20:19;;;;;;;11.65;2.33;;;3.50;99.90;;;;;;5015510;28;20034;-84
2022/12/27 08:22:45;;;;;;;12.15;2.20;;;3.50;99.90;;;;;;5018527;28;20030;-85
2022/12/27 08:25:11;;;;;;;13.10;2.25;;;3.40;99.90;;;;;;5024644;28;20083;-82
2022/12/27 08:27:36;;;;;;;8.70;2.08;;;3.40;99.90;;;;;;5015191;28;20073;-86
2022/12/27 08:30:02;;;;;;;15.02;2.60;;;3.40;99.90;;;;;;5017683;28;20054;-83
2022/12/27 08:32:28;;;;;;;15.05;3.63;;;3.30;99.90;;;;;;5016575;28;20034;-82
2022/12/27 08:34:54;;;;;;;15.40;3.85;;;3.30;99.90;;;;;;5018222;28;20040;-78
2022/12/27 08:37:20;;;;;;;16.33;2.90;;;3.30;99.90;;;;;;5016216;28;20117;-80
2022/12/27 08:39:45;;;;;;;11.02;2.78;;;3.30;99.90;;;;;;5015873;28;20198;-83
2022/12/27 08:42:12;;;;;;;11.32;3.00;;;3.20;99.90;;;;;;5002303;28;20053;-80
2022/12/27 08:44:38;;;;;;;19.35;4.78;;;3.20;99.90;;;;;;5021438;28;20042;-80
2022/12/27 08:47:04;;;;;;;15.70;4.88;;;3.20;99.90;;;;;;5015095;28;20053;-81
2022/12/27 08:49:30;;;;;;;12.15;2.38;;;3.20;99.90;;;;;;5019706;28;20029;-82
2022/12/27 08:51:56;;;;;;;11.50;2.67;;;3.20;99.90;;;;;;5008954;28;20370;-80
2022/12/27 08:54:21;;;;;;;11.13;2.50;;;3.20;99.90;;;;;;5022341;28;20069;-80
2022/12/27 08:56:47;;;;;;;29.38;11.27;;;3.20;99.90;;;;;;5014646;28;20037;-81
2022/12/27 08:59:13;;;;;;;20.58;7.35;;;3.20;99.90;;;;;;5009146;28;20138;-83
2022/12/27 09:01:38;;;;;;;14.18;2.40;;;3.20;99.90;;;;;;5016617;28;20034;-84
2022/12/27 09:04:04;;;;;;;15.48;3.58;;;3.20;99.90;;;;;;5016155;28;20045;-85
2022/12/27 09:06:30;;;;;;;50.53;24.02;;;3.30;99.90;;;;;;5014111;28;20041;-84
2022/12/27 09:08:56;;;;;;;17.13;4.65;;;3.20;99.90;;;;;;5020887;28;20489;-83
2022/12/27 09:11:23;;;;;;;10.98;3.33;;;3.30;99.90;;;;;;5015470;28;20034;-82
2022/12/27 09:13:50;;;;;;;11.10;4.32;;;3.30;99.90;;;;;;5026457;28;20041;-82
2022/12/27 09:16:23;;;;;;;11.32;2.92;;;3.30;99.90;;;;;;5019389;28;20133;-81
2022/12/27 09:18:51;;;;;;;13.77;2.78;;;3.30;99.90;;;;;;5024313;28;20049;-80
2022/12/27 09:21:17;;;;;;;10.35;2.83;;;3.30;99.90;;;;;;5016900;28;21776;-80
2022/12/27 09:23:44;;;;;;;12.00;2.72;;;3.40;99.90;;;;;;5011358;28;20389;-80
2022/12/27 09:26:19;;;;;;;6.07;2.22;;;3.40;99.90;;;;;;5016452;28;20535;-80
2022/12/27 09:28:45;;;;;;;16.50;5.53;;;3.50;99.90;;;;;;5027940;28;20038;-80
2022/12/27 09:31:12;;;;;;;11.88;2.28;;;3.50;99.90;;;;;;5016860;28;20420;-80
2022/12/27 09:33:38;;;;;;;14.05;2.40;;;3.60;99.90;;;;;;5036619;28;20041;-80
2022/12/27 09:36:07;;;;;;;14.27;3.20;;;3.60;99.90;;;;;;5018433;28;20068;-81
2022/12/27 09:38:33;;;;;;;15.00;2.75;;;3.60;99.90;;;;;;5016885;28;20676;-82
2022/12/27 09:41:02;;;;;;;9.15;2.63;;;3.60;99.90;;;;;;5000668;28;20046;-81
2022/12/27 09:43:52;;;;;;;11.07;2.05;;;3.60;99.90;;;;;;5016394;28;20096;-81
2022/12/27 09:46:24;;;;;;;13.82;2.80;;;3.60;99.90;;;;;;5008437;28;20033;-81
2022/12/27 09:48:53;;;;;;;12.45;3.05;;;3.90;99.90;;;;;;5015076;28;20041;-81
2022/12/27 09:51:21;;;;;;;9.30;2.35;;;3.70;99.90;;;;;;5018166;28;20108;-81
2022/12/27 09:54:14;;;;;;;12.23;2.60;;;3.70;99.90;;;;;;5020299;28;20512;-81
2022/12/27 09:56:40;;;;;;;14.00;3.17;;;3.70;99.90;;;;;;5020136;28;20069;-81
2022/12/27 09:59:18;;;;;;;9.75;2.60;;;4.10;99.90;;;;;;5024501;28;20033;-82
2022/12/27 10:01:46;;;;;;;14.38;2.80;;;3.80;99.90;;;;;;5020778;28;20050;-80
2022/12/27 10:04:13;;;;;;;13.80;3.08;;;3.80;99.90;;;;;;5017951;28;20062;-80
2022/12/27 10:06:48;;;;;;;16.50;2.92;;;3.90;99.90;;;;;;5020346;28;20377;-82
2022/12/27 10:09:43;;;;;;;17.02;3.05;;;4.00;99.90;;;;;;5023569;28;20037;-80
2022/12/27 10:12:11;;;;;;;;;;;4.00;99.90;;;;;;5026355;28;20050;-81
2022/12/27 10:15:29;;;;;;;11.73;2.33;;;4.10;99.90;;;;;;5021140;28;19944;-80
2022/12/27 10:18:16;;;;;;;11.13;2.75;;;4.10;99.90;;;;;;4982263;28;20063;-81
2022/12/27 10:20:51;;;;;;;11.70;2.75;;;4.10;99.90;;;;;;5020834;28;20049;-81
2022/12/27 10:23:21;;;;;;;9.18;3.00;;;4.10;99.90;;;;;;5030072;28;20048;-80
2022/12/27 10:25:55;;;;;;;12.73;3.05;;;4.20;99.90;;;;;;5031272;28;20128;-80
2022/12/27 10:28:27;;;;;;;11.50;2.42;;;4.30;99.90;;;;;;5022999;28;20143;-81
2022/12/27 10:30:54;;;;;;;13.07;2.17;;;4.30;99.90;;;;;;5020930;28;20116;-81
2022/12/27 10:33:27;;;;;;;18.55;2.60;;;4.40;99.90;;;;;;5016394;28;20030;-81
2022/12/27 10:35:53;;;;;;;20.15;3.35;;;4.40;99.90;;;;;;5016873;28;20045;-81
2022/12/27 10:38:20;;;;;;;9.18;2.67;;;4.50;99.90;;;;;;5019865;28;20029;-81
2022/12/27 10:41:07;;;;;;;9.75;3.38;;;4.70;99.90;;;;;;5024093;28;20041;-81
2022/12/27 10:43:40;;;;;;;12.00;3.15;;;4.80;99.90;;;;;;5014590;28;20049;-81
2022/12/27 10:46:19;;;;;;;8.57;2.17;;;4.90;99.90;;;;;;5011062;28;20471;-81
2022/12/27 10:49:00;;;;;;;17.45;2.60;;;5.10;99.90;;;;;;5024817;28;20113;-81
2022/12/27 10:51:54;;;;;;;9.13;2.40;;;5.20;99.90;;;;;;5015869;28;20038;-81
2022/12/27 10:54:26;;;;;;;10.35;2.10;;;5.30;99.90;;;;;;5018901;28;20139;-80
2022/12/27 10:56:53;;;;;;;13.05;2.90;;;5.40;99.90;;;;;;5017661;28;20080;-81
2022/12/27 10:59:27;;;;;;;7.68;2.10;;;5.40;99.90;;;;;;5014428;28;20117;-78
2022/12/27 11:01:59;;;;;;;13.15;3.03;;;5.50;99.90;;;;;;5032126;28;20113;-82
2022/12/27 11:04:25;;;;;;;5.57;2.47;;;6.80;99.90;;;;;;5011336;28;20042;-82
2022/12/27 11:07:12;;;;;;;11.30;1.70;;;5.60;99.90;;;;;;5011789;28;20049;-82
2022/12/27 11:09:41;;;;;;;13.48;2.58;;;5.70;99.90;;;;;;5021482;28;20373;-82
2022/12/27 11:12:12;;;;;;;16.27;2.03;;;5.90;99.90;;;;;;5020055;28;20038;-82
2022/12/27 11:14:39;;;;;;;15.77;2.25;;;6.40;99.90;;;;;;5010702;28;20047;-81
2022/12/27 11:17:12;;;;;;;15.82;1.75;;;5.80;99.90;;;;;;5010218;28;20049;-82
2022/12/27 11:19:45;;;;;;;11.93;2.08;;;5.70;99.90;;;;;;5010849;28;20465;-82
2022/12/27 11:22:11;;;;;;;9.65;1.98;;;5.70;99.90;;;;;;5012783;28;20511;-81
2022/12/27 11:24:46;;;;;;;15.32;2.20;;;5.60;99.90;;;;;;5011639;28;20041;-82
2022/12/27 11:27:25;;;;;;;8.90;2.38;;;5.60;99.90;;;;;;5024107;28;20049;-82
2022/12/27 11:29:53;;;;;;;13.48;3.38;;;5.70;99.90;;;;;;5018446;28;20536;-82
2022/12/27 11:32:22;;;;;;;14.18;2.17;;;5.80;99.90;;;;;;5014482;28;20046;-82
2022/12/27 11:34:51;;;;;;;12.90;2.47;;;5.90;99.90;;;;;;5022163;28;20488;-82
2022/12/27 11:37:20;;;;;;;13.07;2.05;;;6.00;99.90;;;;;;5013293;28;20078;-82
2022/12/27 11:39:54;;;;;;;10.93;2.03;;;6.10;99.90;;;;;;4993346;28;20048;-82
2022/12/27 11:42:39;;;;;;;11.23;3.55;;;6.20;99.90;;;;;;5018636;28;20069;-82
2022/12/27 11:45:04;;;;;;;;;;;6.30;99.90;;;;;;5009899;28;20041;-83
2022/12/27 11:47:37;;;;;;;8.80;2.80;;;6.30;99.90;;;;;;5014553;28;19972;-83
2022/12/27 11:50:18;;;;;;;11.13;2.75;;;6.30;99.90;;;;;;5015230;28;20033;-82
2022/12/27 11:53:01;;;;;;;12.23;1.90;;;6.30;99.90;;;;;;5017855;28;20481;-82
2022/12/27 11:55:45;;;;;;;17.20;2.95;;;6.90;99.90;;;;;;5008084;28;20222;-83
2022/12/27 11:58:29;;;;;;;;;;;6.40;99.90;;;;;;5013520;28;20042;-83
2022/12/27 12:01:12;;;;;;;9.98;1.90;;;6.40;99.90;;;;;;5016456;28;20382;-82
2022/12/27 12:04:04;;;;;;;13.18;2.83;;;6.50;99.90;;;;;;5015393;28;20045;-81
2022/12/27 12:06:51;;;;;;;11.40;2.88;;;6.50;99.90;;;;;;5011900;28;20065;-82
2022/12/27 12:09:32;;;;;;;13.75;4.18;;;6.40;99.90;;;;;;5012617;28;20089;-83
2022/12/27 12:12:13;;;;;;;13.20;2.40;;;6.40;99.90;;;;;;5018452;28;20052;-82
2022/12/27 12:15:00;;;;;;;9.48;1.50;;;6.50;99.90;;;;;;5018435;28;20101;-82
2022/12/27 12:18:05;;;;;;;13.35;5.47;;;6.60;99.90;;;;;;5022458;28;20079;-82
2022/12/27 12:20:38;;;;;;;;;;;6.50;99.90;;;;;;5015387;28;20134;-83
2022/12/27 12:23:40;;;;;;;13.05;3.22;;;6.50;99.90;;;;;;5019123;28;19917;-82
2022/12/27 12:26:23;;;;;;;12.57;2.58;;;6.50;99.90;;;;;;5014432;28;20086;-84
2022/12/27 12:29:17;;;;;;;7.38;1.80;;;6.40;99.90;;;;;;5023211;28;20045;-82
2022/12/27 12:32:16;;;;;;;10.27;1.85;;;6.50;99.90;;;;;;5020376;28;20076;-84
2022/12/27 12:34:50;;;;;;;8.55;2.42;;;6.50;99.90;;;;;;5019364;28;20053;-85
2022/12/27 12:37:58;;;;;;;8.23;1.52;;;6.50;99.90;;;;;;5022735;28;20045;-82
2022/12/27 12:41:03;;;;;;;9.27;2.05;;;6.50;99.90;;;;;;4997743;28;20050;-83
2022/12/27 12:43:40;;;;;;;13.32;5.18;;;6.50;99.90;;;;;;4929403;29;20050;-84
2022/12/27 12:46:31;;;;;;;6.25;1.42;;;6.30;99.90;;;;;;4928438;29;20157;-82
2022/12/27 12:49:21;;;;;;;12.95;2.05;;;6.30;99.90;;;;;;4926189;29;20388;-82
2022/12/27 12:52:19;;;;;;;10.77;1.88;;;6.30;99.90;;;;;;4928360;29;20055;-82
2022/12/27 12:55:06;;;;;;;12.48;1.63;;;6.30;99.90;;;;;;4925835;29;20051;-83
2022/12/27 12:57:34;;;;;;;11.88;2.70;;;6.20;99.90;;;;;;4910440;29;20139;-82
2022/12/27 13:00:07;;;;;;;9.63;1.85;;;6.20;99.90;;;;;;4926967;29;20083;-83
2022/12/27 13:02:53;;;;;;;11.68;2.42;;;6.10;99.90;;;;;;4912904;29;20042;-83
2022/12/27 13:05:28;;;;;;;11.25;1.80;;;6.70;99.90;;;;;;4912005;29;20126;-83
2022/12/27 13:08:09;;;;;;;9.57;1.48;;;6.10;99.90;;;;;;4911409;29;20498;-83
2022/12/27 13:11:08;;;;;;;10.50;1.80;;;6.10;99.90;;;;;;4911718;29;20059;-83
2022/12/27 13:13:52;;;;;;;6.82;1.80;;;6.10;99.90;;;;;;4926862;29;20095;-83
2022/12/27 13:16:46;;;;;;;10.60;2.42;;;6.10;99.90;;;;;;4906973;29;20056;-84
2022/12/27 13:19:40;;;;;;;9.82;2.10;;;6.10;99.90;;;;;;4933996;28;20139;-83
2022/12/27 13:22:14;;;;;;;14.93;2.30;;;6.10;99.90;;;;;;5021573;28;20052;-82
2022/12/27 13:25:12;;;;;;;11.60;2.15;;;6.10;99.90;;;;;;5021407;28;20400;-83
2022/12/27 13:28:07;;;;;;;14.13;2.42;;;6.10;99.90;;;;;;5015447;28;20041;-83
2022/12/27 13:30:57;;;;;;;13.55;3.03;;;6.10;99.90;;;;;;5022548;28;20270;-83
2022/12/27 13:33:34;;;;;;;12.15;2.63;;;6.10;99.90;;;;;;5021519;28;20489;-82
2022/12/27 13:36:46;;;;;;;10.70;2.33;;;6.10;99.90;;;;;;5015980;28;20427;-83
2022/12/27 13:39:31;;;;;;;7.18;1.70;;;6.10;99.90;;;;;;4993277;28;20049;-83
2022/12/27 13:42:21;;;;;;;11.70;2.03;;;6.10;99.90;;;;;;5017725;28;20054;-83
2022/12/27 13:45:29;;;;;;;10.43;2.40;;;6.10;99.90;;;;;;5001933;28;20057;-83
2022/12/27 13:48:21;;;;;;;10.48;2.70;;;6.10;99.90;;;;;;4987069;28;20039;-83
2022/12/27 13:51:22;;;;;;;12.93;2.80;;;6.10;99.90;;;;;;4972475;28;20046;-82
2022/12/27 13:53:50;;;;;;;9.48;2.78;;;6.10;99.90;;;;;;4985213;28;20065;-85
2022/12/27 13:56:52;;;;;;;11.77;2.78;;;6.00;99.90;;;;;;4987022;28;20054;-84
2022/12/27 13:59:33;;;;;;;14.15;2.90;;;6.00;99.90;;;;;;4972507;28;20034;-83
2022/12/27 14:02:35;;;;;;;11.77;2.90;;;6.00;99.90;;;;;;4988842;28;20046;-83
2022/12/27 14:05:01;;;;;;;10.45;3.10;;;6.00;99.90;;;;;;4977109;28;20117;-83
2022/12/27 14:07:36;;;;;;;13.43;3.20;;;6.00;99.90;;;;;;4987488;28;20301;-83
2022/12/27 14:10:10;;;;;;;;;;;5.90;99.90;;;;;;4972222;28;20175;-84
2022/12/27 14:12:56;;;;;;;12.73;3.47;;;5.90;99.90;;;;;;4972454;28;20399;-83
2022/12/27 14:15:41;;;;;;;12.27;3.60;;;5.90;99.90;;;;;;4983639;28;20061;-82
2022/12/27 14:18:37;;;;;;;14.10;3.80;;;6.00;99.90;;;;;;4986221;28;20054;-82
2022/12/27 14:21:16;;;;;;;16.40;3.95;;;6.00;99.90;;;;;;4971664;28;20165;-82
2022/12/27 14:24:00;;;;;;;11.32;4.07;;;6.00;99.90;;;;;;5006243;28;20045;-83
2022/12/27 14:27:05;;;;;;;12.98;4.38;;;6.00;99.90;;;;;;5026420;28;20392;-83
2022/12/27 14:29:42;;;;;;;16.05;4.40;;;6.10;99.90;;;;;;5013581;28;20048;-83
2022/12/27 14:32:11;;;;;;;13.90;4.65;;;6.10;99.90;;;;;;5007355;28;20041;-83
2022/12/27 14:34:42;;;;;;;12.25;5.38;;;6.10;99.90;;;;;;5011957;28;20037;-83
2022/12/27 14:37:41;;;;;;;8.38;4.40;;;6.10;99.90;;;;;;5015156;28;20046;-84
2022/12/27 14:40:19;;;;;;;16.90;4.97;;;6.10;99.90;;;;;;5022309;28;20128;-83
2022/12/27 14:43:03;;;;;;;11.65;5.10;;;6.20;99.90;;;;;;5017536;28;20049;-83
2022/12/27 14:46:07;;;;;;;19.38;7.55;;;6.10;99.90;;;;;;5000604;28;21816;-82
2022/12/27 14:48:54;;;;;;;13.68;6.05;;;6.10;99.90;;;;;;5020955;28;20053;-82
2022/12/27 14:51:31;;;;;;;17.92;8.10;;;6.10;99.90;;;;;;5023467;28;20030;-82
2022/12/27 14:54:26;;;;;;;18.90;7.25;;;6.10;99.90;;;;;;5023144;28;20045;-83
2022/12/27 14:57:07;;;;;;;17.40;7.50;;;6.00;99.90;;;;;;5020374;28;20046;-81
2022/12/27 14:59:38;;;;;;;17.45;7.15;;;6.00;99.90;;;;;;5031675;28;20049;-82
2022/12/27 15:02:10;;;;;;;16.48;7.88;;;6.10;99.90;;;;;;5027633;28;20042;-82
2022/12/27 15:04:52;;;;;;;18.00;7.63;;;6.10;99.90;;;;;;5025671;28;20042;-81